createdAt,value
2016-09-11T00:00:17.428Z,0.00
2016-09-11T00:01:17.795Z,0.00
2016-09-11T00:02:18.304Z,0.00
2016-09-11T00:03:18.818Z,0.00
2016-09-11T00:04:19.480Z,0.00
2016-09-11T00:05:19.849Z,0.00
2016-09-11T00:06:21.787Z,0.00
2016-09-11T00:07:20.922Z,0.00
2016-09-11T00:08:21.407Z,0.00
2016-09-11T00:09:21.932Z,0.00
2016-09-11T00:10:22.466Z,0.00
2016-09-11T00:11:22.947Z,0.00
2016-09-11T00:12:23.616Z,0.00
2016-09-11T00:13:23.980Z,0.00
2016-09-11T00:14:24.498Z,0.00
2016-09-11T00:15:25.013Z,0.00
2016-09-11T00:16:25.552Z,0.00
2016-09-11T00:17:26.042Z,0.00
2016-09-11T00:18:26.558Z,0.00
2016-09-11T00:19:27.076Z,0.00
2016-09-11T00:20:27.581Z,0.00
2016-09-11T00:21:28.095Z,0.00
2016-09-11T00:22:28.610Z,0.00
2016-09-11T00:23:29.125Z,0.00
2016-09-11T00:24:29.655Z,0.00
2016-09-11T00:25:30.307Z,0.00
2016-09-11T00:26:30.677Z,0.00
2016-09-11T00:27:31.391Z,0.00
2016-09-11T00:28:31.707Z,0.00
2016-09-11T00:29:32.394Z,0.00
2016-09-11T00:30:32.737Z,0.00
2016-09-11T00:31:33.253Z,0.00
2016-09-11T00:32:33.926Z,0.00
2016-09-11T00:33:34.278Z,0.00
2016-09-11T00:34:34.798Z,0.00
2016-09-11T00:35:35.311Z,0.00
2016-09-11T00:36:35.980Z,0.00
2016-09-11T00:37:36.336Z,0.00
2016-09-11T00:38:36.853Z,0.00
2016-09-11T00:39:37.362Z,0.00
2016-09-11T00:40:37.883Z,0.00
2016-09-11T00:41:38.548Z,0.00
2016-09-11T00:42:38.904Z,0.00
2016-09-11T00:43:39.569Z,0.00
2016-09-11T00:44:39.940Z,0.00
2016-09-11T00:45:40.454Z,0.00
2016-09-11T00:46:40.972Z,0.00
2016-09-11T00:47:41.492Z,0.00
2016-09-11T00:48:42.162Z,0.00
2016-09-11T00:49:42.720Z,0.00
2016-09-11T00:50:43.220Z,0.00
2016-09-11T00:51:43.563Z,0.00
2016-09-11T00:52:44.072Z,0.00
2016-09-11T00:53:44.601Z,0.00
2016-09-11T00:54:45.276Z,0.00
2016-09-11T00:55:45.648Z,0.00
2016-09-11T00:56:46.125Z,0.00
2016-09-11T00:57:46.791Z,0.00
2016-09-11T00:58:47.306Z,0.00
2016-09-11T00:59:47.673Z,0.00
2016-09-11T01:00:48.302Z,0.00
2016-09-11T01:01:48.714Z,0.00
2016-09-11T01:02:49.362Z,0.00
2016-09-11T01:03:49.730Z,0.00
2016-09-11T01:04:50.400Z,0.00
2016-09-11T01:05:50.762Z,0.00
2016-09-11T01:06:51.272Z,0.00
2016-09-11T01:07:51.787Z,0.00
2016-09-11T01:08:52.306Z,0.00
2016-09-11T01:09:52.830Z,0.00
2016-09-11T01:10:53.480Z,0.00
2016-09-11T01:11:53.870Z,0.00
2016-09-11T01:12:54.367Z,0.00
2016-09-11T01:13:54.893Z,0.00
2016-09-11T01:14:55.393Z,0.00
2016-09-11T01:15:56.055Z,0.00
2016-09-11T01:16:56.436Z,0.00
2016-09-11T01:17:56.931Z,0.00
2016-09-11T01:18:57.446Z,0.00
2016-09-11T01:19:57.961Z,0.00
2016-09-11T01:20:58.484Z,0.00
2016-09-11T01:21:58.992Z,0.00
2016-09-11T01:22:59.505Z,0.00
2016-09-11T01:24:00.029Z,0.00
2016-09-11T01:25:00.551Z,0.00
2016-09-11T01:26:01.063Z,0.00
2016-09-11T01:27:01.591Z,0.00
2016-09-11T01:28:02.103Z,0.00
2016-09-11T01:29:02.765Z,0.00
2016-09-11T01:30:03.437Z,0.00
2016-09-11T01:31:03.637Z,0.00
2016-09-11T01:32:04.152Z,0.00
2016-09-11T01:33:04.673Z,0.00
2016-09-11T01:34:05.335Z,0.00
2016-09-11T01:35:05.847Z,0.00
2016-09-11T01:36:06.212Z,0.00
2016-09-11T01:37:06.735Z,0.00
2016-09-11T01:38:07.241Z,0.00
2016-09-11T01:39:07.756Z,0.00
2016-09-11T01:40:08.272Z,0.00
2016-09-11T01:41:08.790Z,0.00
2016-09-11T01:42:09.602Z,0.00
2016-09-11T01:43:09.811Z,0.00
2016-09-11T01:44:10.487Z,0.00
2016-09-11T01:45:11.142Z,0.00
2016-09-11T01:46:11.359Z,0.00
2016-09-11T01:47:11.885Z,0.00
2016-09-11T01:48:12.386Z,0.00
2016-09-11T01:49:12.902Z,0.00
2016-09-11T01:50:13.418Z,0.00
2016-09-11T01:51:13.930Z,0.00
2016-09-11T01:52:14.597Z,0.00
2016-09-11T01:53:14.987Z,0.00
2016-09-11T01:54:15.484Z,0.00
2016-09-11T01:55:15.992Z,0.00
2016-09-11T01:56:16.526Z,0.00
2016-09-11T01:57:17.043Z,0.00
2016-09-11T01:58:17.540Z,0.00
2016-09-11T01:59:18.205Z,0.00
2016-09-11T02:00:19.651Z,0.00
2016-09-11T02:01:20.604Z,0.00
2016-09-11T02:02:19.631Z,0.00
2016-09-11T02:03:20.122Z,0.00
2016-09-11T02:04:20.691Z,0.00
2016-09-11T02:05:21.318Z,0.00
2016-09-11T02:06:21.664Z,0.00
2016-09-11T02:07:22.187Z,0.00
2016-09-11T02:08:22.711Z,0.00
2016-09-11T02:09:23.670Z,0.00
2016-09-11T02:10:23.867Z,0.00
2016-09-11T02:11:24.235Z,0.00
2016-09-11T02:12:24.779Z,0.00
2016-09-11T02:13:25.257Z,0.00
2016-09-11T02:14:25.918Z,0.00
2016-09-11T02:15:26.442Z,0.00
2016-09-11T02:16:26.800Z,0.00
2016-09-11T02:17:27.333Z,0.00
2016-09-11T02:18:27.976Z,0.00
2016-09-11T02:19:28.334Z,0.00
2016-09-11T02:20:28.851Z,0.00
2016-09-11T02:21:29.369Z,0.00
2016-09-11T02:22:30.037Z,0.00
2016-09-11T02:23:30.393Z,0.00
2016-09-11T02:24:31.058Z,0.00
2016-09-11T02:25:31.426Z,0.00
2016-09-11T02:26:32.092Z,0.00
2016-09-11T02:27:32.608Z,0.00
2016-09-11T02:28:32.973Z,0.00
2016-09-11T02:29:33.638Z,0.00
2016-09-11T02:30:34.160Z,0.00
2016-09-11T02:31:34.690Z,0.00
2016-09-11T02:32:35.095Z,0.00
2016-09-11T02:33:35.551Z,0.00
2016-09-11T02:34:36.066Z,0.00
2016-09-11T02:35:36.739Z,0.00
2016-09-11T02:36:37.102Z,0.00
2016-09-11T02:37:37.621Z,0.00
2016-09-11T02:38:38.284Z,0.00
2016-09-11T02:39:38.801Z,0.00
2016-09-11T02:40:39.320Z,0.00
2016-09-11T02:41:39.687Z,0.00
2016-09-11T02:42:40.341Z,0.00
2016-09-11T02:43:40.790Z,0.00
2016-09-11T02:44:41.244Z,0.00
2016-09-11T02:45:41.738Z,0.00
2016-09-11T02:46:42.402Z,0.00
2016-09-11T02:47:42.915Z,0.00
2016-09-11T02:48:43.280Z,0.00
2016-09-11T02:49:43.945Z,0.00
2016-09-11T02:50:44.442Z,0.00
2016-09-11T02:51:44.845Z,0.00
2016-09-11T02:52:45.379Z,0.00
2016-09-11T02:53:46.002Z,0.00
2016-09-11T02:54:46.366Z,0.00
2016-09-11T02:55:53.944Z,0.00
2016-09-11T02:56:47.399Z,0.00
2016-09-11T02:57:48.212Z,0.00
2016-09-11T02:58:48.425Z,0.00
2016-09-11T02:59:49.090Z,0.00
2016-09-11T03:00:49.604Z,0.00
2016-09-11T03:01:50.118Z,0.00
2016-09-11T03:02:50.644Z,0.00
2016-09-11T03:03:50.999Z,0.00
2016-09-11T03:04:51.532Z,0.00
2016-09-11T03:05:52.323Z,0.00
2016-09-11T03:06:52.694Z,0.00
2016-09-11T03:07:53.058Z,0.00
2016-09-11T03:08:53.584Z,0.00
2016-09-11T03:09:54.080Z,0.00
2016-09-11T03:10:54.927Z,0.00
2016-09-11T03:11:55.113Z,0.00
2016-09-11T03:12:55.637Z,0.00
2016-09-11T03:13:56.148Z,0.00
2016-09-11T03:14:56.715Z,0.00
2016-09-11T03:15:57.177Z,0.00
2016-09-11T03:16:57.691Z,0.00
2016-09-11T03:17:58.356Z,0.00
2016-09-11T03:18:58.720Z,0.00
2016-09-11T03:20:00.815Z,0.00
2016-09-11T03:20:59.750Z,0.00
2016-09-11T03:22:00.417Z,0.00
2016-09-11T03:23:00.771Z,0.00
2016-09-11T03:24:01.436Z,0.00
2016-09-11T03:25:02.085Z,0.00
2016-09-11T03:26:02.338Z,0.00
2016-09-11T03:27:02.978Z,0.00
2016-09-11T03:28:03.359Z,0.00
2016-09-11T03:29:04.018Z,0.00
2016-09-11T03:30:04.533Z,0.00
2016-09-11T03:31:04.883Z,0.00
2016-09-11T03:32:05.571Z,0.00
2016-09-11T03:33:05.919Z,0.00
2016-09-11T03:34:06.433Z,0.00
2016-09-11T03:35:06.946Z,0.00
2016-09-11T03:36:07.464Z,0.00
2016-09-11T03:37:07.971Z,0.00
2016-09-11T03:38:09.994Z,0.00
2016-09-11T03:39:08.999Z,0.00
2016-09-11T03:40:09.515Z,0.00
2016-09-11T03:41:10.059Z,0.00
2016-09-11T03:42:10.697Z,0.00
2016-09-11T03:43:11.113Z,0.00
2016-09-11T03:44:11.566Z,0.00
2016-09-11T03:45:12.078Z,0.00
2016-09-11T03:46:12.753Z,0.00
2016-09-11T03:47:13.153Z,0.00
2016-09-11T03:48:13.637Z,0.00
2016-09-11T03:49:14.155Z,0.00
2016-09-11T03:50:14.672Z,0.00
2016-09-11T03:51:15.236Z,0.00
2016-09-11T03:52:15.874Z,0.00
2016-09-11T03:53:16.218Z,0.00
2016-09-11T03:54:16.733Z,0.00
2016-09-11T03:55:17.252Z,0.00
2016-09-11T03:56:17.771Z,0.00
2016-09-11T03:57:18.287Z,0.00
2016-09-11T03:58:18.785Z,0.00
2016-09-11T03:59:19.329Z,0.00
2016-09-11T04:00:20.444Z,0.00
2016-09-11T04:01:20.331Z,0.00
2016-09-11T04:02:20.862Z,0.00
2016-09-11T04:03:21.378Z,0.00
2016-09-11T04:04:21.879Z,0.00
2016-09-11T04:05:22.689Z,0.00
2016-09-11T04:06:22.911Z,0.00
2016-09-11T04:07:23.429Z,0.00
2016-09-11T04:08:24.237Z,0.00
2016-09-11T04:09:24.447Z,0.00
2016-09-11T04:10:24.960Z,0.00
2016-09-11T04:11:25.473Z,0.00
2016-09-11T04:12:26.005Z,0.00
2016-09-11T04:13:26.523Z,0.00
2016-09-11T04:14:27.015Z,0.00
2016-09-11T04:15:27.755Z,0.00
2016-09-11T04:16:28.042Z,0.00
2016-09-11T04:17:28.555Z,0.00
2016-09-11T04:18:29.226Z,0.00
2016-09-11T04:19:29.604Z,0.00
2016-09-11T04:20:30.104Z,0.00
2016-09-11T04:21:30.764Z,0.00
2016-09-11T04:22:31.137Z,0.00
2016-09-11T04:23:31.683Z,0.00
2016-09-11T04:24:32.157Z,0.00
2016-09-11T04:25:32.839Z,0.00
2016-09-11T04:26:33.222Z,0.00
2016-09-11T04:27:33.720Z,0.00
2016-09-11T04:28:34.229Z,0.00
2016-09-11T04:29:34.752Z,0.00
2016-09-11T04:30:35.262Z,0.00
2016-09-11T04:31:35.929Z,0.00
2016-09-11T04:32:36.297Z,0.00
2016-09-11T04:33:36.806Z,0.00
2016-09-11T04:34:37.318Z,0.00
2016-09-11T04:35:37.834Z,0.00
2016-09-11T04:36:38.350Z,0.00
2016-09-11T04:37:38.864Z,0.00
2016-09-11T04:38:39.379Z,0.00
2016-09-11T04:39:39.891Z,0.00
2016-09-11T04:40:40.413Z,0.00
2016-09-11T04:41:40.922Z,0.00
2016-09-11T04:42:41.451Z,0.00
2016-09-11T04:43:41.954Z,0.00
2016-09-11T04:44:42.466Z,0.00
2016-09-11T04:45:42.979Z,0.00
2016-09-11T04:46:43.489Z,0.00
2016-09-11T04:47:44.007Z,0.00
2016-09-11T04:48:44.545Z,0.00
2016-09-11T04:49:45.038Z,0.00
2016-09-11T04:50:45.580Z,0.00
2016-09-11T04:51:46.069Z,0.00
2016-09-11T04:52:46.728Z,0.00
2016-09-11T04:53:47.096Z,0.00
2016-09-11T04:54:47.784Z,0.00
2016-09-11T04:55:48.273Z,0.00
2016-09-11T04:56:48.789Z,0.00
2016-09-11T04:57:49.153Z,0.00
2016-09-11T04:58:49.662Z,0.00
2016-09-11T04:59:50.178Z,0.00
2016-09-11T05:00:50.841Z,1.00
2016-09-11T05:01:51.211Z,1.00
2016-09-11T05:02:51.725Z,1.00
2016-09-11T05:03:52.243Z,1.00
2016-09-11T05:04:52.765Z,1.00
2016-09-11T05:05:53.273Z,1.00
2016-09-11T05:06:53.795Z,1.00
2016-09-11T05:07:54.304Z,1.00
2016-09-11T05:08:54.817Z,1.00
2016-09-11T05:09:55.479Z,1.00
2016-09-11T05:10:55.855Z,1.00
2016-09-11T05:11:56.356Z,1.00
2016-09-11T05:12:56.880Z,2.00
2016-09-11T05:13:57.529Z,2.00
2016-09-11T05:14:57.898Z,2.00
2016-09-11T05:15:58.406Z,2.00
2016-09-11T05:16:58.915Z,2.00
2016-09-11T05:17:59.583Z,2.00
2016-09-11T05:18:59.942Z,2.00
2016-09-11T05:20:00.460Z,2.00
2016-09-11T05:21:00.973Z,2.00
2016-09-11T05:22:01.494Z,3.00
2016-09-11T05:23:02.019Z,3.00
2016-09-11T05:24:02.520Z,3.00
2016-09-11T05:25:03.031Z,3.00
2016-09-11T05:26:03.549Z,3.00
2016-09-11T05:27:04.063Z,3.00
2016-09-11T05:28:04.574Z,3.00
2016-09-11T05:29:05.236Z,4.00
2016-09-11T05:30:05.602Z,4.00
2016-09-11T05:31:06.118Z,4.00
2016-09-11T05:32:06.794Z,4.00
2016-09-11T05:33:07.148Z,4.00
2016-09-11T05:34:07.662Z,4.00
2016-09-11T05:35:08.325Z,4.00
2016-09-11T05:36:08.708Z,4.00
2016-09-11T05:37:09.202Z,5.00
2016-09-11T05:38:09.723Z,5.00
2016-09-11T05:39:10.394Z,5.00
2016-09-11T05:40:11.058Z,5.00
2016-09-11T05:41:11.427Z,5.00
2016-09-11T05:42:11.819Z,6.00
2016-09-11T05:43:12.311Z,6.00
2016-09-11T05:44:12.823Z,6.00
2016-09-11T05:45:13.659Z,6.00
2016-09-11T05:46:15.508Z,7.00
2016-09-11T05:47:14.516Z,7.00
2016-09-11T05:48:14.882Z,7.00
2016-09-11T05:49:15.402Z,7.00
2016-09-11T05:50:15.953Z,7.00
2016-09-11T05:51:16.446Z,7.00
2016-09-11T05:52:16.943Z,7.00
2016-09-11T05:53:17.455Z,7.00
2016-09-11T05:54:17.967Z,7.00
2016-09-11T05:55:18.638Z,8.00
2016-09-11T05:56:19.009Z,8.00
2016-09-11T05:57:19.513Z,8.00
2016-09-11T05:58:20.029Z,8.00
2016-09-11T05:59:20.544Z,9.00
2016-09-11T06:00:21.057Z,9.00
2016-09-11T06:01:21.721Z,10.00
2016-09-11T06:02:22.104Z,11.00
2016-09-11T06:03:22.605Z,11.00
2016-09-11T06:04:23.111Z,11.00
2016-09-11T06:05:23.629Z,12.00
2016-09-11T06:06:24.139Z,13.00
2016-09-11T06:07:24.661Z,13.00
2016-09-11T06:08:25.170Z,13.00
2016-09-11T06:09:25.691Z,12.00
2016-09-11T06:10:26.351Z,13.00
2016-09-11T06:11:27.411Z,13.00
2016-09-11T06:12:27.262Z,12.00
2016-09-11T06:13:27.904Z,14.00
2016-09-11T06:14:28.292Z,15.00
2016-09-11T06:15:28.935Z,14.00
2016-09-11T06:16:29.308Z,15.00
2016-09-11T06:17:29.831Z,16.00
2016-09-11T06:18:30.337Z,16.00
2016-09-11T06:19:30.855Z,16.00
2016-09-11T06:20:31.368Z,17.00
2016-09-11T06:21:32.034Z,17.00
2016-09-11T06:22:32.408Z,17.00
2016-09-11T06:23:32.919Z,18.00
2016-09-11T06:24:33.430Z,19.00
2016-09-11T06:25:33.944Z,19.00
2016-09-11T06:26:34.458Z,19.00
2016-09-11T06:27:35.127Z,19.00
2016-09-11T06:28:35.489Z,20.00
2016-09-11T06:29:36.154Z,20.00
2016-09-11T06:30:36.524Z,20.00
2016-09-11T06:31:37.034Z,20.00
2016-09-11T06:32:37.562Z,21.00
2016-09-11T06:33:38.098Z,21.00
2016-09-11T06:34:38.575Z,21.00
2016-09-11T06:35:39.093Z,21.00
2016-09-11T06:36:39.609Z,22.00
2016-09-11T06:37:40.288Z,22.00
2016-09-11T06:38:40.639Z,22.00
2016-09-11T06:39:41.300Z,22.00
2016-09-11T06:40:41.666Z,23.00
2016-09-11T06:41:42.179Z,23.00
2016-09-11T06:42:42.723Z,23.00
2016-09-11T06:43:43.234Z,24.00
2016-09-11T06:44:43.739Z,24.00
2016-09-11T06:45:44.255Z,24.00
2016-09-11T06:46:44.783Z,24.00
2016-09-11T06:47:45.277Z,25.00
2016-09-11T06:48:45.805Z,25.00
2016-09-11T06:49:46.457Z,25.00
2016-09-11T06:50:46.979Z,25.00
2016-09-11T06:51:47.352Z,26.00
2016-09-11T06:52:47.889Z,26.00
2016-09-11T06:53:48.525Z,26.00
2016-09-11T06:54:49.191Z,27.00
2016-09-11T06:55:49.553Z,27.00
2016-09-11T06:56:50.074Z,27.00
2016-09-11T06:57:50.428Z,27.00
2016-09-11T06:58:50.944Z,27.00
2016-09-11T06:59:51.460Z,28.00
2016-09-11T07:00:51.974Z,28.00
2016-09-11T07:01:52.510Z,28.00
2016-09-11T07:02:53.004Z,28.00
2016-09-11T07:03:53.823Z,29.00
2016-09-11T07:04:54.036Z,29.00
2016-09-11T07:05:54.723Z,29.00
2016-09-11T07:06:55.062Z,29.00
2016-09-11T07:07:55.576Z,29.00
2016-09-11T07:08:56.098Z,31.00
2016-09-11T07:09:56.602Z,32.00
2016-09-11T07:10:57.124Z,33.00
2016-09-11T07:11:57.819Z,33.00
2016-09-11T07:12:58.305Z,31.00
2016-09-11T07:13:58.668Z,31.00
2016-09-11T07:14:59.189Z,31.00
2016-09-11T07:15:59.692Z,31.00
2016-09-11T07:17:00.249Z,31.00
2016-09-11T07:18:00.728Z,31.00
2016-09-11T07:19:01.251Z,31.00
2016-09-11T07:20:01.815Z,31.00
2016-09-11T07:21:02.319Z,31.00
2016-09-11T07:22:02.798Z,32.00
2016-09-11T07:23:04.950Z,32.00
2016-09-11T07:24:03.809Z,32.00
2016-09-11T07:25:04.330Z,32.00
2016-09-11T07:26:04.839Z,32.00
2016-09-11T07:27:05.396Z,33.00
2016-09-11T07:28:06.038Z,33.00
2016-09-11T07:29:06.414Z,33.00
2016-09-11T07:30:07.986Z,33.00
2016-09-11T07:31:08.277Z,33.00
2016-09-11T07:32:07.944Z,33.00
2016-09-11T07:33:08.458Z,34.00
2016-09-11T07:34:09.122Z,34.00
2016-09-11T07:35:09.491Z,34.00
2016-09-11T07:36:10.018Z,34.00
2016-09-11T07:37:11.000Z,34.00
2016-09-11T07:38:12.829Z,34.00
2016-09-11T07:39:11.718Z,34.00
2016-09-11T07:40:12.394Z,35.00
2016-09-11T07:41:12.578Z,35.00
2016-09-11T07:42:13.128Z,35.00
2016-09-11T07:43:13.765Z,35.00
2016-09-11T07:44:14.117Z,35.00
2016-09-11T07:45:15.703Z,35.00
2016-09-11T07:46:15.154Z,35.00
2016-09-11T07:47:15.672Z,36.00
2016-09-11T07:48:16.197Z,36.00
2016-09-11T07:49:16.697Z,36.00
2016-09-11T07:50:17.362Z,36.00
2016-09-11T07:51:17.724Z,36.00
2016-09-11T07:52:18.247Z,36.00
2016-09-11T07:53:18.787Z,36.00
2016-09-11T07:54:19.283Z,37.00
2016-09-11T07:55:19.786Z,37.00
2016-09-11T07:56:20.594Z,37.00
2016-09-11T07:57:20.813Z,37.00
2016-09-11T07:58:21.325Z,37.00
2016-09-11T07:59:21.848Z,37.00
2016-09-11T08:00:22.503Z,38.00
2016-09-11T08:01:22.869Z,38.00
2016-09-11T08:02:23.415Z,38.00
2016-09-11T08:03:24.055Z,38.00
2016-09-11T08:04:24.421Z,38.00
2016-09-11T08:05:25.239Z,38.00
2016-09-11T08:06:25.459Z,39.00
2016-09-11T08:07:25.983Z,39.00
2016-09-11T08:08:26.498Z,39.00
2016-09-11T08:09:27.003Z,39.00
2016-09-11T08:10:27.667Z,40.00
2016-09-11T08:11:28.034Z,40.00
2016-09-11T08:12:28.557Z,40.00
2016-09-11T08:13:29.365Z,40.00
2016-09-11T08:14:29.599Z,40.00
2016-09-11T08:15:30.094Z,40.00
2016-09-11T08:16:30.615Z,40.00
2016-09-11T08:17:31.124Z,41.00
2016-09-11T08:18:31.661Z,41.00
2016-09-11T08:19:32.155Z,41.00
2016-09-11T08:20:32.671Z,41.00
2016-09-11T08:21:33.416Z,41.00
2016-09-11T08:22:33.733Z,42.00
2016-09-11T08:23:34.213Z,42.00
2016-09-11T08:24:34.731Z,42.00
2016-09-11T08:25:35.244Z,41.00
2016-09-11T08:26:35.758Z,42.00
2016-09-11T08:27:36.287Z,43.00
2016-09-11T08:28:36.786Z,43.00
2016-09-11T08:29:38.348Z,43.00
2016-09-11T08:30:37.811Z,43.00
2016-09-11T08:31:38.478Z,44.00
2016-09-11T08:32:38.871Z,44.00
2016-09-11T08:33:39.359Z,44.00
2016-09-11T08:34:39.874Z,45.00
2016-09-11T08:35:40.401Z,45.00
2016-09-11T08:36:41.049Z,42.00
2016-09-11T08:37:41.418Z,40.00
2016-09-11T08:38:41.935Z,40.00
2016-09-11T08:39:42.452Z,39.00
2016-09-11T08:40:43.000Z,41.00
2016-09-11T08:41:43.509Z,37.00
2016-09-11T08:42:44.014Z,36.00
2016-09-11T08:43:44.527Z,35.00
2016-09-11T08:44:45.067Z,41.00
2016-09-11T08:45:45.547Z,42.00
2016-09-11T08:46:46.359Z,43.00
2016-09-11T08:47:46.730Z,44.00
2016-09-11T08:48:47.121Z,44.00
2016-09-11T08:49:47.608Z,43.00
2016-09-11T08:50:48.126Z,44.00
2016-09-11T08:51:48.636Z,45.00
2016-09-11T08:52:49.315Z,45.00
2016-09-11T08:53:49.667Z,45.00
2016-09-11T08:54:50.181Z,46.00
2016-09-11T08:55:50.846Z,46.00
2016-09-11T08:56:51.230Z,44.00
2016-09-11T08:57:51.722Z,46.00
2016-09-11T08:58:52.233Z,47.00
2016-09-11T08:59:52.750Z,47.00
2016-09-11T09:00:53.272Z,47.00
2016-09-11T09:01:53.797Z,48.00
2016-09-11T09:02:54.298Z,48.00
2016-09-11T09:03:54.821Z,48.00
2016-09-11T09:04:55.326Z,48.00
2016-09-11T09:05:55.857Z,47.00
2016-09-11T09:06:56.523Z,47.00
2016-09-11T09:07:57.011Z,47.00
2016-09-11T09:08:57.419Z,47.00
2016-09-11T09:09:57.904Z,48.00
2016-09-11T09:10:58.413Z,48.00
2016-09-11T09:11:58.923Z,49.00
2016-09-11T09:12:59.629Z,50.00
2016-09-11T09:13:59.956Z,50.00
2016-09-11T09:15:00.574Z,51.00
2016-09-11T09:16:01.096Z,51.00
2016-09-11T09:17:01.511Z,51.00
2016-09-11T09:18:02.247Z,50.00
2016-09-11T09:19:04.203Z,50.00
2016-09-11T09:20:03.058Z,50.00
2016-09-11T09:21:03.872Z,46.00
2016-09-11T09:22:04.080Z,43.00
2016-09-11T09:23:05.365Z,44.00
2016-09-11T09:24:05.108Z,47.00
2016-09-11T09:25:05.626Z,49.00
2016-09-11T09:26:06.139Z,50.00
2016-09-11T09:27:06.654Z,49.00
2016-09-11T09:28:07.174Z,50.00
2016-09-11T09:29:07.831Z,51.00
2016-09-11T09:30:08.257Z,51.00
2016-09-11T09:31:08.859Z,51.00
2016-09-11T09:32:09.228Z,51.00
2016-09-11T09:33:09.744Z,50.00
2016-09-11T09:34:10.402Z,50.00
2016-09-11T09:35:10.768Z,49.00
2016-09-11T09:36:11.276Z,50.00
2016-09-11T09:37:12.092Z,50.00
2016-09-11T09:38:12.308Z,50.00
2016-09-11T09:39:12.971Z,49.00
2016-09-11T09:40:13.487Z,49.00
2016-09-11T09:41:13.849Z,49.00
2016-09-11T09:42:14.510Z,49.00
2016-09-11T09:43:14.876Z,49.00
2016-09-11T09:44:15.538Z,47.00
2016-09-11T09:45:15.907Z,39.00
2016-09-11T09:46:16.424Z,36.00
2016-09-11T09:47:16.942Z,37.00
2016-09-11T09:48:19.256Z,35.00
2016-09-11T09:49:17.969Z,35.00
2016-09-11T09:50:18.483Z,33.00
2016-09-11T09:51:18.997Z,34.00
2016-09-11T09:52:19.513Z,35.00
2016-09-11T09:53:20.180Z,36.00
2016-09-11T09:54:20.576Z,38.00
2016-09-11T09:55:21.066Z,40.00
2016-09-11T09:56:21.724Z,42.00
2016-09-11T09:57:22.316Z,44.00
2016-09-11T09:58:22.600Z,45.00
2016-09-11T09:59:23.112Z,46.00
2016-09-11T10:00:24.374Z,46.00
2016-09-11T10:01:24.137Z,46.00
2016-09-11T10:02:24.649Z,46.00
2016-09-11T10:03:25.181Z,49.00
2016-09-11T10:04:25.681Z,49.00
2016-09-11T10:05:26.215Z,49.00
2016-09-11T10:06:26.705Z,49.00
2016-09-11T10:07:27.369Z,47.00
2016-09-11T10:08:27.883Z,47.00
2016-09-11T10:09:28.250Z,45.00
2016-09-11T10:10:28.762Z,46.00
2016-09-11T10:11:29.423Z,46.00
2016-09-11T10:12:29.969Z,46.00
2016-09-11T10:13:30.766Z,47.00
2016-09-11T10:14:30.834Z,47.00
2016-09-11T10:15:31.330Z,48.00
2016-09-11T10:16:31.992Z,48.00
2016-09-11T10:17:32.361Z,50.00
2016-09-11T10:18:33.019Z,53.00
2016-09-11T10:19:33.392Z,53.00
2016-09-11T10:20:33.898Z,53.00
2016-09-11T10:21:34.433Z,52.00
2016-09-11T10:22:34.925Z,50.00
2016-09-11T10:23:35.459Z,43.00
2016-09-11T10:24:35.963Z,36.00
2016-09-11T10:25:36.496Z,34.00
2016-09-11T10:26:36.985Z,43.00
2016-09-11T10:27:37.502Z,43.00
2016-09-11T10:28:38.163Z,28.00
2016-09-11T10:29:38.534Z,34.00
2016-09-11T10:30:39.351Z,43.00
2016-09-11T10:31:39.568Z,43.00
2016-09-11T10:32:40.082Z,43.00
2016-09-11T10:33:40.755Z,43.00
2016-09-11T10:34:41.138Z,48.00
2016-09-11T10:35:41.626Z,48.00
2016-09-11T10:36:42.138Z,48.00
2016-09-11T10:37:42.669Z,47.00
2016-09-11T10:38:43.169Z,47.00
2016-09-11T10:39:43.684Z,44.00
2016-09-11T10:40:44.203Z,46.00
2016-09-11T10:41:44.714Z,46.00
2016-09-11T10:42:45.226Z,44.00
2016-09-11T10:43:45.883Z,44.00
2016-09-11T10:44:46.248Z,43.00
2016-09-11T10:45:46.917Z,43.00
2016-09-11T10:46:47.282Z,45.00
2016-09-11T10:47:47.793Z,48.00
2016-09-11T10:48:48.306Z,52.00
2016-09-11T10:49:48.973Z,55.00
2016-09-11T10:50:49.635Z,58.00
2016-09-11T10:51:49.846Z,58.00
2016-09-11T10:52:50.363Z,57.00
2016-09-11T10:53:51.023Z,53.00
2016-09-11T10:54:51.395Z,58.00
2016-09-11T10:55:51.916Z,58.00
2016-09-11T10:56:52.569Z,58.00
2016-09-11T10:57:52.927Z,58.00
2016-09-11T10:58:53.440Z,57.00
2016-09-11T10:59:54.262Z,44.00
2016-09-11T11:00:54.472Z,34.00
2016-09-11T11:01:55.004Z,35.00
2016-09-11T11:02:55.496Z,29.00
2016-09-11T11:03:56.315Z,33.00
2016-09-11T11:04:56.553Z,43.00
2016-09-11T11:05:57.038Z,43.00
2016-09-11T11:06:57.568Z,37.00
2016-09-11T11:07:58.533Z,29.00
2016-09-11T11:08:58.748Z,28.00
2016-09-11T11:09:59.118Z,30.00
2016-09-11T11:10:59.798Z,37.00
2016-09-11T11:12:00.148Z,37.00
2016-09-11T11:13:00.657Z,34.00
2016-09-11T11:14:01.184Z,41.00
2016-09-11T11:15:02.907Z,45.00
2016-09-11T11:16:02.220Z,43.00
2016-09-11T11:17:02.718Z,48.00
2016-09-11T11:18:03.230Z,51.00
2016-09-11T11:19:04.047Z,52.00
2016-09-11T11:20:04.279Z,55.00
2016-09-11T11:21:05.071Z,57.00
2016-09-11T11:22:05.289Z,56.00
2016-09-11T11:23:05.800Z,55.00
2016-09-11T11:24:06.613Z,54.00
2016-09-11T11:25:10.283Z,53.00
2016-09-11T11:26:07.342Z,52.00
2016-09-11T11:27:07.856Z,52.00
2016-09-11T11:28:08.371Z,53.00
2016-09-11T11:29:08.903Z,52.00
2016-09-11T11:30:09.552Z,51.00
2016-09-11T11:31:09.917Z,51.00
2016-09-11T11:32:10.577Z,51.00
2016-09-11T11:33:11.115Z,49.00
2016-09-11T11:34:11.476Z,46.00
2016-09-11T11:35:11.989Z,46.00
2016-09-11T11:36:12.494Z,50.00
2016-09-11T11:37:13.012Z,50.00
2016-09-11T11:38:13.519Z,51.00
2016-09-11T11:39:14.039Z,51.00
2016-09-11T11:40:15.598Z,51.00
2016-09-11T11:41:15.059Z,51.00
2016-09-11T11:42:15.603Z,50.00
2016-09-11T11:43:19.187Z,50.00
2016-09-11T11:44:16.663Z,50.00
2016-09-11T11:45:17.276Z,51.00
2016-09-11T11:46:17.672Z,53.00
2016-09-11T11:47:18.312Z,54.00
2016-09-11T11:48:24.032Z,53.00
2016-09-11T11:48:57.455Z,53.00
2016-09-11T11:50:20.018Z,50.00
2016-09-11T11:51:20.373Z,49.00
2016-09-11T11:52:20.739Z,47.00
2016-09-11T11:53:21.259Z,49.00
2016-09-11T11:54:21.920Z,50.00
2016-09-11T11:55:22.300Z,52.00
2016-09-11T11:56:22.802Z,52.00
2016-09-11T11:57:23.362Z,53.00
2016-09-11T11:58:23.830Z,52.00
2016-09-11T11:59:24.376Z,53.00
2016-09-11T12:00:25.615Z,56.00
2016-09-11T12:01:25.373Z,61.00
2016-09-11T12:02:25.914Z,64.00
2016-09-11T12:03:26.414Z,67.00
2016-09-11T12:04:26.919Z,67.00
2016-09-11T12:05:27.606Z,66.00
2016-09-11T12:06:27.948Z,66.00
2016-09-11T12:07:28.465Z,65.00
2016-09-11T12:08:28.981Z,65.00
2016-09-11T12:09:29.517Z,67.00
2016-09-11T12:10:30.157Z,67.00
2016-09-11T12:11:30.679Z,68.00
2016-09-11T12:12:31.045Z,68.00
2016-09-11T12:13:32.155Z,67.00
2016-09-11T12:14:32.067Z,64.00
2016-09-11T12:15:32.610Z,65.00
2016-09-11T12:16:33.097Z,66.00
2016-09-11T12:17:33.617Z,66.00
2016-09-11T12:18:34.146Z,63.00
2016-09-11T12:19:34.656Z,63.00
2016-09-11T12:20:35.179Z,64.00
2016-09-11T12:21:35.694Z,63.00
2016-09-11T12:22:36.500Z,66.00
2016-09-11T12:23:36.725Z,67.00
2016-09-11T12:24:37.259Z,67.00
2016-09-11T12:25:37.756Z,67.00
2016-09-11T12:26:38.269Z,67.00
2016-09-11T12:27:38.935Z,68.00
2016-09-11T12:28:39.507Z,64.00
2016-09-11T12:29:39.820Z,64.00
2016-09-11T12:30:40.329Z,61.00
2016-09-11T12:31:40.846Z,61.00
2016-09-11T12:32:41.359Z,63.00
2016-09-11T12:33:41.873Z,63.00
2016-09-11T12:34:42.398Z,62.00
2016-09-11T12:35:42.902Z,58.00
2016-09-11T12:36:43.576Z,55.00
2016-09-11T12:37:44.081Z,53.00
2016-09-11T12:38:44.594Z,51.00
2016-09-11T12:39:44.960Z,51.00
2016-09-11T12:40:45.475Z,49.00
2016-09-11T12:41:45.989Z,45.00
2016-09-11T12:42:46.509Z,42.00
2016-09-11T12:43:47.285Z,46.00
2016-09-11T12:44:47.683Z,47.00
2016-09-11T12:45:48.047Z,51.00
2016-09-11T12:46:48.622Z,56.00
2016-09-11T12:47:49.079Z,61.00
2016-09-11T12:48:49.744Z,62.00
2016-09-11T12:49:50.287Z,56.00
2016-09-11T12:50:50.778Z,51.00
2016-09-11T12:51:51.139Z,59.00
2016-09-11T12:52:51.646Z,61.00
2016-09-11T12:53:52.479Z,61.00
2016-09-11T12:54:53.285Z,64.00
2016-09-11T12:55:53.204Z,65.00
2016-09-11T12:56:53.716Z,68.00
2016-09-11T12:57:54.233Z,68.00
2016-09-11T12:58:54.759Z,67.00
2016-09-11T12:59:55.266Z,64.00
2016-09-11T13:00:55.779Z,62.00
2016-09-11T13:01:56.452Z,62.00
2016-09-11T13:02:56.960Z,64.00
2016-09-11T13:03:57.328Z,66.00
2016-09-11T13:04:57.838Z,66.00
2016-09-11T13:05:58.505Z,65.00
2016-09-11T13:06:59.027Z,61.00
2016-09-11T13:07:59.382Z,59.00
2016-09-11T13:08:59.896Z,58.00
2016-09-11T13:10:00.431Z,59.00
2016-09-11T13:11:01.084Z,59.00